Time;durP1;ratioP1;P1;durP2;ratioP2;P2;SDS_P1;SDS_P2;PMS_P1;PMS_P2;Temp;Humidity;BMP_temperature;BMP_pressure;BME280_temperature;BME280_humidity;BME280_pressure;Samples;Min_cycle;Max_cycle;Signal;HPM_P1;HPM_P2
2022/04/28 00:00:34;;;;;;;7.97;3.73;;;17.70;99.90;;;;;;5093031;28;20474;-81
2022/04/28 00:03:02;;;;;;;6.80;3.07;;;17.70;99.90;;;;;;5092053;28;20463;-80
2022/04/28 00:05:29;;;;;;;7.20;2.93;;;17.50;99.90;;;;;;5092759;28;21065;-77
2022/04/28 00:07:56;;;;;;;6.83;3.40;;;17.10;99.90;;;;;;5092776;28;20537;-75
2022/04/28 00:10:25;;;;;;;8.40;4.10;;;17.10;99.90;;;;;;5092475;28;20452;-77
2022/04/28 00:12:52;;;;;;;5.27;3.07;;;17.10;99.90;;;;;;5092825;28;20452;-79
2022/04/28 00:15:19;;;;;;;7.33;2.90;;;17.00;99.90;;;;;;5092307;28;20459;-79
2022/04/28 00:17:47;;;;;;;6.63;2.87;;;17.10;99.90;;;;;;5091796;28;20475;-77
2022/04/28 00:20:14;;;;;;;6.83;2.67;;;16.90;99.90;;;;;;5092519;28;20955;-77
2022/04/28 00:22:41;;;;;;;7.27;2.97;;;16.90;99.90;;;;;;5092013;28;20452;-77
2022/04/28 00:25:09;;;;;;;6.80;2.60;;;16.90;99.90;;;;;;5092114;28;20487;-78
2022/04/28 00:27:38;;;;;;;4.70;2.53;;;17.10;99.90;;;;;;5091820;28;20479;-77
2022/04/28 00:30:07;;;;;;;7.00;3.07;;;17.10;99.90;;;;;;5092068;28;20452;-76
2022/04/28 00:32:34;;;;;;;9.73;2.83;;;17.10;99.90;;;;;;5091747;28;20452;-81
2022/04/28 00:35:02;;;;;;;5.10;2.77;;;17.10;99.90;;;;;;5092012;28;20452;-78
2022/04/28 00:37:29;;;;;;;5.67;3.23;;;17.20;99.90;;;;;;5092152;28;20476;-77
2022/04/28 00:39:56;;;;;;;10.00;3.20;;;17.30;99.90;;;;;;5092195;28;20466;-77
2022/04/28 00:42:24;;;;;;;7.80;2.87;;;17.30;99.90;;;;;;5091983;28;20456;-77
2022/04/28 00:44:52;;;;;;;8.80;4.17;;;17.30;99.90;;;;;;5091936;28;20483;-77
2022/04/28 00:47:19;;;;;;;5.53;2.87;;;17.00;99.90;;;;;;5091709;28;20479;-78
2022/04/28 00:52:33;;;;;;;5.37;2.70;;;17.00;99.90;;;;;;5087197;28;20452;-80
2022/04/28 00:55:01;;;;;;;7.10;3.40;;;17.40;99.90;;;;;;5092004;28;20455;-80
2022/04/28 00:57:33;;;;;;;6.93;2.77;;;17.50;99.90;;;;;;5091825;28;20475;-75
2022/04/28 01:00:03;;;;;;;4.70;2.90;;;17.60;99.90;;;;;;5091707;28;20448;-77
2022/04/28 01:02:30;;;;;;;5.67;3.30;;;17.60;99.90;;;;;;5091092;28;20965;-80
2022/04/28 01:04:57;;;;;;;10.20;3.20;;;17.50;99.90;;;;;;5101086;28;20490;-80
2022/04/28 01:07:25;;;;;;;10.40;3.00;;;17.50;99.90;;;;;;5111866;28;20478;-79
2022/04/28 01:09:52;;;;;;;8.30;3.57;;;17.40;99.90;;;;;;5095595;28;20444;-77
2022/04/28 01:12:21;;;;;;;9.43;7.20;;;17.50;99.90;;;;;;5091719;28;20806;-79
2022/04/28 01:14:50;;;;;;;16.33;11.87;;;17.50;99.90;;;;;;5091866;28;20821;-77
2022/04/28 01:17:19;;;;;;;8.87;7.20;;;17.50;99.90;;;;;;5091635;28;20856;-76
2022/04/28 01:19:46;;;;;;;5.00;3.03;;;17.60;99.90;;;;;;5091485;28;20929;-76
2022/04/28 01:22:14;;;;;;;5.83;2.90;;;17.60;99.90;;;;;;5092050;28;20447;-76
2022/04/28 01:24:41;;;;;;;4.93;2.83;;;17.60;99.90;;;;;;5092068;28;20999;-77
2022/04/28 01:27:09;;;;;;;5.77;2.67;;;17.60;99.90;;;;;;5092312;28;20471;-78
2022/04/28 01:29:36;;;;;;;8.27;2.90;;;17.50;99.90;;;;;;5091717;28;20448;-79
2022/04/28 01:32:04;;;;;;;9.37;3.10;;;17.50;99.90;;;;;;5105199;28;20933;-78
2022/04/28 01:34:31;;;;;;;8.17;3.60;;;17.50;99.90;;;;;;5111671;28;20459;-80
2022/04/28 01:36:58;;;;;;;6.90;3.30;;;17.40;99.90;;;;;;5090915;28;20472;-80
2022/04/28 01:39:27;;;;;;;7.80;3.57;;;17.40;99.90;;;;;;5091168;28;20932;-78
2022/04/28 01:41:54;;;;;;;6.40;2.77;;;17.30;99.90;;;;;;5091048;28;20455;-78
2022/04/28 01:44:21;;;;;;;10.77;2.60;;;17.40;99.90;;;;;;5090829;28;20467;-78
2022/04/28 01:46:48;;;;;;;5.43;2.93;;;17.30;99.90;;;;;;5090516;28;20475;-80
2022/04/28 01:49:15;;;;;;;6.10;2.60;;;17.30;99.90;;;;;;5090734;28;20850;-78
2022/04/28 01:57:12;;;;;;;8.90;3.17;;;17.10;99.90;;;;;;5088215;28;20458;-77
2022/04/28 01:59:40;;;;;;;7.50;3.43;;;16.90;99.90;;;;;;5077973;28;20468;-80
2022/04/28 02:02:07;;;;;;;10.10;3.20;;;16.60;99.90;;;;;;5090248;28;20459;-76
2022/04/28 02:04:34;;;;;;;8.57;4.37;;;16.60;99.90;;;;;;5089148;28;20472;-80
2022/04/28 02:07:01;;;;;;;7.47;4.13;;;16.70;99.90;;;;;;5089751;28;21013;-76
2022/04/28 02:09:30;;;;;;;6.80;4.20;;;16.70;99.90;;;;;;5091126;28;20459;-81
2022/04/28 02:11:57;;;;;;;7.37;4.00;;;16.60;99.90;;;;;;5089821;28;20452;-80
2022/04/28 02:14:24;;;;;;;11.80;5.30;;;16.50;99.90;;;;;;5109349;28;20489;-76
2022/04/28 02:16:51;;;;;;;7.97;4.27;;;16.50;99.90;;;;;;5105003;28;20468;-75
2022/04/28 02:19:18;;;;;;;10.00;4.80;;;16.60;99.90;;;;;;5090452;28;21006;-78
2022/04/28 02:21:45;;;;;;;9.57;5.07;;;16.60;99.90;;;;;;5090565;28;20456;-78
2022/04/28 02:24:12;;;;;;;10.73;5.23;;;16.60;99.90;;;;;;5090096;28;20451;-79
2022/04/28 02:26:40;;;;;;;12.23;4.87;;;16.70;99.90;;;;;;5089933;28;20491;-78
2022/04/28 02:29:08;;;;;;;9.67;5.07;;;16.70;99.90;;;;;;5089783;28;20940;-76
2022/04/28 02:31:35;;;;;;;11.93;5.90;;;16.60;99.90;;;;;;5089651;28;20454;-76
2022/04/28 02:34:02;;;;;;;8.10;5.87;;;16.50;99.90;;;;;;5090143;28;20459;-76
2022/04/28 02:36:29;;;;;;;8.43;6.07;;;16.50;99.90;;;;;;5089532;28;20464;-76
2022/04/28 02:38:56;;;;;;;10.27;5.63;;;16.60;99.90;;;;;;5089299;28;20476;-81
2022/04/28 02:41:23;;;;;;;6.50;5.33;;;16.70;99.90;;;;;;5089712;28;20459;-79
2022/04/28 02:43:53;;;;;;;10.63;5.57;;;16.60;99.90;;;;;;5087725;28;20517;-77
2022/04/28 02:46:20;;;;;;;9.50;6.20;;;16.60;99.90;;;;;;5089959;28;20511;-79
2022/04/28 02:48:49;;;;;;;9.47;6.40;;;16.70;99.90;;;;;;5088769;28;20448;-75
2022/04/28 02:51:16;;;;;;;7.80;5.40;;;16.60;99.90;;;;;;5101660;28;20594;-76
2022/04/28 02:53:43;;;;;;;10.50;6.63;;;16.50;99.90;;;;;;5096857;28;20452;-76
2022/04/28 02:56:10;;;;;;;12.50;6.00;;;16.40;99.90;;;;;;5089227;28;20480;-75
2022/04/28 02:58:38;;;;;;;10.83;6.40;;;16.30;99.90;;;;;;5089658;28;20460;-79
2022/04/28 03:01:06;;;;;;;7.83;6.30;;;16.40;99.90;;;;;;5088990;28;20604;-78
2022/04/28 03:03:34;;;;;;;9.90;5.03;;;16.30;99.90;;;;;;5089440;28;20459;-77
2022/04/28 03:11:30;;;;;;;9.40;5.57;;;16.30;99.90;;;;;;5089446;28;20513;-82
2022/04/28 03:13:58;;;;;;;9.10;5.60;;;16.30;99.90;;;;;;5090498;28;20812;-79
2022/04/28 03:16:26;;;;;;;9.80;4.73;;;16.20;99.90;;;;;;5088462;28;20563;-75
2022/04/28 03:18:54;;;;;;;7.00;5.20;;;16.20;99.90;;;;;;5089401;28;20455;-78
2022/04/28 03:21:21;;;;;;;8.83;5.07;;;16.10;99.90;;;;;;5089198;28;20501;-74
2022/04/28 03:23:48;;;;;;;7.40;5.60;;;16.20;99.90;;;;;;5088847;28;20518;-74
2022/04/28 03:26:15;;;;;;;9.13;5.80;;;16.10;99.90;;;;;;5088997;28;20498;-73
2022/04/28 03:28:43;;;;;;;10.10;5.20;;;16.20;99.90;;;;;;5089191;28;20456;-73
2022/04/28 03:31:10;;;;;;;11.23;5.37;;;16.30;99.90;;;;;;5088175;28;21095;-74
2022/04/28 03:33:38;;;;;;;8.40;5.27;;;16.30;99.90;;;;;;5089220;28;20976;-70
2022/04/28 03:36:50;;;;;;;9.17;5.67;;;16.10;99.90;;;;;;5089153;28;20472;-77
2022/04/28 03:38:54;;;;;;;10.40;5.50;;;16.20;99.90;;;;;;5090609;28;20899;-76
2022/04/28 03:41:22;;;;;;;9.60;5.93;;;16.30;99.90;;;;;;5088891;28;20462;-78
2022/04/28 03:43:49;;;;;;;9.00;6.57;;;16.40;99.90;;;;;;5088766;28;21070;-76
2022/04/28 03:46:16;;;;;;;7.33;5.50;;;16.30;99.90;;;;;;5089063;28;20492;-77
2022/04/28 03:48:44;;;;;;;8.00;5.90;;;16.30;99.90;;;;;;5087386;28;21008;-77
2022/04/28 03:51:12;;;;;;;11.33;6.20;;;16.40;99.90;;;;;;5090247;28;20495;-78
2022/04/28 03:53:39;;;;;;;11.50;6.23;;;16.30;99.90;;;;;;5103552;28;20495;-75
2022/04/28 03:56:06;;;;;;;6.57;5.63;;;16.30;99.90;;;;;;5094941;28;21035;-78
2022/04/28 03:58:33;;;;;;;12.87;6.10;;;16.40;99.90;;;;;;5103532;28;20456;-75
2022/04/28 04:01:01;;;;;;;10.90;6.50;;;16.50;99.90;;;;;;5088817;28;20451;-75
2022/04/28 04:03:28;;;;;;;9.37;7.77;;;16.50;99.90;;;;;;5088234;28;20943;-75
2022/04/28 04:05:56;;;;;;;8.40;7.47;;;16.40;99.90;;;;;;5088128;28;20487;-72
2022/04/28 04:08:23;;;;;;;9.60;7.00;;;16.30;99.90;;;;;;5085490;28;20925;-78
2022/04/28 04:10:50;;;;;;;8.07;7.27;;;16.20;99.90;;;;;;5088356;28;20529;-76
2022/04/28 04:13:18;;;;;;;9.10;7.63;;;16.20;99.90;;;;;;5089060;28;20448;-73
2022/04/28 04:15:45;;;;;;;9.07;7.80;;;16.20;99.90;;;;;;5088030;28;20448;-75
2022/04/28 04:18:13;;;;;;;11.37;8.90;;;16.20;99.90;;;;;;5087732;28;20460;-74
2022/04/28 04:20:40;;;;;;;10.83;8.70;;;16.10;99.90;;;;;;5091936;28;20448;-73
2022/04/28 04:23:09;;;;;;;11.53;9.13;;;16.00;99.90;;;;;;5095181;28;20452;-78
2022/04/28 04:25:36;;;;;;;9.30;8.40;;;16.10;99.90;;;;;;5112505;28;20493;-71
2022/04/28 04:28:03;;;;;;;10.43;8.70;;;16.10;99.90;;;;;;5099754;28;20463;-72
2022/04/28 04:33:14;;;;;;;11.57;9.30;;;16.10;99.90;;;;;;5089531;28;20588;-76
2022/04/28 04:35:41;;;;;;;10.93;9.67;;;16.10;99.90;;;;;;5093480;28;20444;-74
2022/04/28 04:38:09;;;;;;;9.70;8.50;;;16.00;99.90;;;;;;5091495;28;20447;-79
2022/04/28 04:40:37;;;;;;;10.10;8.70;;;15.90;99.90;;;;;;5092318;28;20470;-78
2022/04/28 04:43:05;;;;;;;10.23;8.60;;;15.90;99.90;;;;;;5092110;28;21227;-74
2022/04/28 04:45:33;;;;;;;12.50;9.37;;;15.90;99.90;;;;;;5091825;28;20848;-74
2022/04/28 04:48:00;;;;;;;8.23;7.33;;;15.60;99.90;;;;;;5092028;28;20538;-74
2022/04/28 04:50:27;;;;;;;10.50;8.33;;;15.70;99.90;;;;;;5091549;28;20488;-77
2022/04/28 04:52:54;;;;;;;9.87;8.50;;;15.70;99.90;;;;;;5091856;28;20556;-74
2022/04/28 04:55:23;;;;;;;8.33;7.20;;;15.60;99.90;;;;;;5108477;28;20444;-81
2022/04/28 04:57:50;;;;;;;9.30;8.30;;;15.60;99.90;;;;;;5093254;28;20517;-76
2022/04/28 05:00:18;;;;;;;7.93;6.80;;;15.40;99.90;;;;;;5091087;28;20460;-77
2022/04/28 05:02:45;;;;;;;10.20;6.23;;;15.40;99.90;;;;;;5111021;28;20448;-78
2022/04/28 05:05:12;;;;;;;7.30;4.93;;;15.40;99.90;;;;;;5101532;28;20448;-76
2022/04/28 05:07:39;;;;;;;5.90;4.07;;;15.30;99.90;;;;;;5077973;28;20998;-74
2022/04/28 05:10:07;;;;;;;7.10;4.10;;;15.00;99.90;;;;;;5092196;28;20482;-74
2022/04/28 05:12:36;;;;;;;5.77;3.83;;;14.70;99.90;;;;;;5092171;28;20768;-73
2022/04/28 05:15:04;;;;;;;6.20;3.53;;;14.50;99.90;;;;;;5091535;28;20456;-73
2022/04/28 05:17:31;;;;;;;5.70;3.63;;;14.50;99.90;;;;;;5091328;28;20475;-75
2022/04/28 05:20:00;;;;;;;6.43;3.70;;;14.40;99.90;;;;;;5091693;28;20448;-72
2022/04/28 05:22:27;;;;;;;5.50;3.20;;;14.50;99.90;;;;;;5091799;28;20481;-72
2022/04/28 05:24:54;;;;;;;7.10;2.80;;;14.50;99.90;;;;;;5091723;28;20486;-75
2022/04/28 05:27:21;;;;;;;5.10;2.50;;;14.40;99.90;;;;;;5091677;28;20496;-72
2022/04/28 05:29:50;;;;;;;5.53;2.47;;;14.40;99.90;;;;;;5091507;28;20533;-72
2022/04/28 05:32:17;;;;;;;4.23;2.43;;;14.20;99.90;;;;;;5090901;28;20443;-73
2022/04/28 05:34:44;;;;;;;3.90;1.90;;;14.10;99.90;;;;;;5091497;28;20448;-73
2022/04/28 05:37:12;;;;;;;4.80;2.27;;;14.00;99.90;;;;;;5091310;28;20881;-76
2022/04/28 05:39:41;;;;;;;3.90;2.03;;;14.00;99.90;;;;;;5091374;28;20449;-74
2022/04/28 05:42:09;;;;;;;4.40;2.20;;;14.00;99.90;;;;;;5091459;28;20459;-75
2022/04/28 05:47:24;;;;;;;4.30;2.20;;;13.80;99.90;;;;;;5091127;28;20828;-75
2022/04/28 05:49:51;;;;;;;3.90;1.80;;;13.90;99.90;;;;;;5090796;28;20472;-73
2022/04/28 05:52:18;;;;;;;4.23;1.60;;;14.00;99.90;;;;;;5091296;28;20452;-73
2022/04/28 05:54:45;;;;;;;4.50;1.70;;;14.00;99.90;;;;;;5091295;28;20857;-74
2022/04/28 05:57:12;;;;;;;4.20;2.10;;;14.00;99.90;;;;;;5090955;28;20464;-74
2022/04/28 05:59:40;;;;;;;4.00;2.23;;;14.20;99.90;;;;;;5090993;28;20459;-74
2022/04/28 06:02:08;;;;;;;3.50;1.63;;;14.10;99.90;;;;;;5090842;28;20479;-72
2022/04/28 06:04:36;;;;;;;3.93;1.93;;;13.90;99.90;;;;;;5091176;28;20609;-73
2022/04/28 06:07:05;;;;;;;3.93;1.60;;;13.90;99.90;;;;;;5090824;28;20489;-73
2022/04/28 06:09:33;;;;;;;4.03;2.00;;;13.70;99.90;;;;;;5090959;28;20460;-74
2022/04/28 06:12:00;;;;;;;3.97;2.00;;;13.60;99.90;;;;;;5090742;28;20459;-74
2022/04/28 06:14:27;;;;;;;6.93;1.83;;;13.60;99.90;;;;;;5090844;28;20459;-74
2022/04/28 06:16:54;;;;;;;7.00;1.97;;;13.40;99.90;;;;;;5090756;28;20471;-74
2022/04/28 06:19:23;;;;;;;5.00;2.13;;;13.30;99.90;;;;;;5090817;28;20459;-73
2022/04/28 06:21:52;;;;;;;4.20;2.17;;;13.50;99.90;;;;;;5090716;28;20456;-74
2022/04/28 06:24:19;;;;;;;3.90;1.80;;;13.50;99.90;;;;;;5090795;28;20828;-74
2022/04/28 06:26:46;;;;;;;5.80;2.90;;;13.50;99.90;;;;;;5089877;28;20518;-74
2022/04/28 06:29:13;;;;;;;4.30;2.30;;;13.50;99.90;;;;;;5088872;28;20831;-76
2022/04/28 06:31:40;;;;;;;3.80;2.20;;;13.60;99.90;;;;;;5090284;28;20452;-76
2022/04/28 06:34:07;;;;;;;8.60;2.17;;;13.50;99.90;;;;;;5089181;28;20452;-73
2022/04/28 06:36:35;;;;;;;3.83;2.10;;;13.20;99.90;;;;;;5089869;28;20471;-74
2022/04/28 06:39:04;;;;;;;5.60;2.60;;;13.30;99.90;;;;;;5089474;28;20502;-74
2022/04/28 06:41:31;;;;;;;4.63;1.97;;;13.30;99.90;;;;;;5089830;28;20452;-72
2022/04/28 06:43:58;;;;;;;5.30;2.57;;;13.40;99.90;;;;;;5089079;28;20999;-75
2022/04/28 06:46:25;;;;;;;4.00;1.80;;;13.40;99.90;;;;;;5088187;28;20491;-75
2022/04/28 06:48:52;;;;;;;4.10;1.90;;;13.20;99.90;;;;;;5088088;28;20456;-76
2022/04/28 06:51:19;;;;;;;4.40;2.40;;;13.20;99.90;;;;;;5088831;28;20499;-77
2022/04/28 06:53:46;;;;;;;3.90;1.90;;;13.20;99.90;;;;;;5089589;28;20471;-78
2022/04/28 06:56:16;;;;;;;3.50;1.70;;;13.10;99.90;;;;;;5088943;28;20476;-76
2022/04/28 06:58:44;;;;;;;5.73;1.90;;;13.00;99.90;;;;;;5088885;28;20444;-75
2022/04/28 07:01:11;;;;;;;4.70;2.63;;;13.00;99.90;;;;;;5089397;28;21138;-75
2022/04/28 07:03:40;;;;;;;4.50;2.40;;;13.10;99.90;;;;;;5089493;28;20483;-74
2022/04/28 07:06:07;;;;;;;4.87;2.20;;;13.30;99.90;;;;;;5088971;28;20484;-75
2022/04/28 07:08:34;;;;;;;4.10;2.23;;;13.30;99.90;;;;;;5089425;28;20448;-75
2022/04/28 07:11:01;;;;;;;6.53;2.27;;;13.40;99.90;;;;;;5089401;28;20459;-76
2022/04/28 07:13:30;;;;;;;4.70;2.07;;;13.50;99.90;;;;;;5089487;28;20475;-77
2022/04/28 07:15:57;;;;;;;4.50;2.30;;;13.50;99.90;;;;;;5088778;28;20460;-76
2022/04/28 07:18:24;;;;;;;6.40;2.20;;;13.40;99.90;;;;;;5089046;28;20456;-77
2022/04/28 07:20:51;;;;;;;4.60;1.97;;;13.50;99.90;;;;;;5089009;28;20990;-74
2022/04/28 07:23:18;;;;;;;5.60;2.73;;;13.40;99.90;;;;;;5088933;28;20456;-77
2022/04/28 07:25:45;;;;;;;5.30;3.57;;;13.40;99.90;;;;;;5089277;28;20448;-77
2022/04/28 07:28:12;;;;;;;6.00;3.13;;;13.40;99.90;;;;;;5089737;28;20488;-77
2022/04/28 07:30:40;;;;;;;6.97;4.37;;;13.40;99.90;;;;;;5089413;28;20489;-74
2022/04/28 07:33:08;;;;;;;4.37;2.73;;;13.40;99.90;;;;;;5102863;28;20452;-76
2022/04/28 07:35:35;;;;;;;5.23;2.70;;;13.30;99.90;;;;;;5088359;28;20485;-75
2022/04/28 07:38:02;;;;;;;4.83;2.50;;;13.40;99.90;;;;;;5098269;28;20811;-74
2022/04/28 07:40:30;;;;;;;4.43;2.40;;;13.50;99.90;;;;;;5109422;28;20439;-76
2022/04/28 07:42:57;;;;;;;4.90;2.57;;;13.60;99.90;;;;;;5092940;28;20510;-76
2022/04/28 07:45:24;;;;;;;4.40;2.27;;;13.60;99.90;;;;;;5088833;28;20456;-75
2022/04/28 07:47:54;;;;;;;4.93;1.93;;;13.70;99.90;;;;;;5088481;28;20491;-77
2022/04/28 07:50:21;;;;;;;4.00;1.83;;;13.80;99.90;;;;;;5085187;28;20483;-76
2022/04/28 07:52:49;;;;;;;3.90;2.30;;;13.80;99.90;;;;;;5089026;28;20447;-75
2022/04/28 07:55:16;;;;;;;4.33;2.13;;;13.90;99.90;;;;;;5092076;28;21253;-74
2022/04/28 07:57:43;;;;;;;10.00;2.27;;;14.00;99.90;;;;;;5093172;28;20581;-76
2022/04/28 08:00:11;;;;;;;4.57;2.27;;;14.10;99.90;;;;;;5092977;28;20455;-76
2022/04/28 08:02:38;;;;;;;3.83;1.87;;;14.10;99.90;;;;;;5093050;28;20865;-73
2022/04/28 08:05:08;;;;;;;4.07;1.90;;;13.90;99.90;;;;;;5094021;28;20487;-73
2022/04/28 08:07:35;;;;;;;5.10;2.43;;;14.00;99.90;;;;;;5093301;28;20578;-75
2022/04/28 08:10:04;;;;;;;4.13;2.20;;;14.10;99.90;;;;;;5091993;28;20448;-73
2022/04/28 08:12:31;;;;;;;4.40;2.13;;;14.20;99.90;;;;;;5092257;28;20491;-75
2022/04/28 08:14:58;;;;;;;4.27;2.37;;;14.40;99.90;;;;;;5093051;28;20448;-74
2022/04/28 08:17:26;;;;;;;7.20;2.57;;;14.50;99.90;;;;;;5092994;28;20468;-73
2022/04/28 08:19:53;;;;;;;3.63;1.60;;;14.60;99.90;;;;;;5093347;28;20463;-74
2022/04/28 08:22:21;;;;;;;4.83;2.07;;;14.40;99.90;;;;;;5092364;28;20464;-74
2022/04/28 08:24:49;;;;;;;4.40;1.93;;;14.20;99.90;;;;;;5100132;28;20458;-75
2022/04/28 08:27:16;;;;;;;4.07;1.90;;;14.20;99.90;;;;;;5091315;28;20515;-76
2022/04/28 08:29:43;;;;;;;6.07;2.57;;;14.20;99.90;;;;;;5105772;28;20443;-73
2022/04/28 08:32:12;;;;;;;4.97;2.23;;;14.30;99.90;;;;;;5112643;28;20447;-75
2022/04/28 08:34:39;;;;;;;4.20;2.03;;;14.20;99.90;;;;;;5113103;28;20447;-75
2022/04/28 08:37:06;;;;;;;4.53;2.23;;;14.20;99.90;;;;;;5112618;28;20467;-76
2022/04/28 08:39:34;;;;;;;5.10;2.10;;;14.20;99.90;;;;;;5112898;28;20462;-76
2022/04/28 08:42:02;;;;;;;4.07;2.03;;;14.10;99.90;;;;;;5097747;28;20452;-78
2022/04/28 08:44:29;;;;;;;4.20;2.40;;;14.20;99.90;;;;;;5092165;28;20949;-76
2022/04/28 08:46:57;;;;;;;6.20;2.30;;;14.30;99.90;;;;;;5091465;28;20492;-75
2022/04/28 08:49:26;;;;;;;4.50;1.73;;;14.30;99.90;;;;;;5091828;28;20480;-76
2022/04/28 08:51:55;;;;;;;7.17;2.40;;;14.30;99.90;;;;;;5091393;28;20971;-72
2022/04/28 08:54:24;;;;;;;4.00;2.10;;;14.50;99.90;;;;;;5087164;28;20455;-73
2022/04/28 08:56:53;;;;;;;5.50;2.07;;;14.60;99.90;;;;;;5091169;28;20494;-75
2022/04/28 08:59:21;;;;;;;4.43;2.27;;;14.70;99.90;;;;;;5106977;28;20454;-76
2022/04/28 09:01:50;;;;;;;5.47;2.73;;;14.60;99.90;;;;;;5110521;28;20455;-78
2022/04/28 09:04:18;;;;;;;5.53;2.80;;;14.70;99.90;;;;;;5091123;28;21215;-77
2022/04/28 09:06:49;;;;;;;4.83;2.83;;;14.70;99.90;;;;;;5089978;28;20579;-76
2022/04/28 09:09:18;;;;;;;5.20;2.60;;;14.80;99.90;;;;;;5091721;28;20451;-77
2022/04/28 09:11:46;;;;;;;5.67;2.93;;;14.90;99.90;;;;;;5102991;28;20452;-75
2022/04/28 09:14:17;;;;;;;6.97;3.03;;;15.00;99.90;;;;;;5091260;28;20459;-79
2022/04/28 09:16:46;;;;;;;5.27;2.73;;;15.30;99.90;;;;;;5091077;28;20537;-76
2022/04/28 09:19:15;;;;;;;7.40;2.67;;;15.40;99.90;;;;;;5091375;28;20456;-75
2022/04/28 09:21:42;;;;;;;4.67;2.40;;;15.60;99.90;;;;;;5091495;28;20462;-75
2022/04/28 09:24:11;;;;;;;5.10;2.77;;;15.60;99.90;;;;;;5090876;28;20458;-73
2022/04/28 09:26:39;;;;;;;12.27;2.60;;;15.70;99.90;;;;;;5091115;28;20820;-77
2022/04/28 09:29:06;;;;;;;5.23;2.53;;;15.60;99.90;;;;;;5092420;28;20453;-78
2022/04/28 09:31:39;;;;;;;11.33;3.13;;;15.60;99.90;;;;;;5089636;28;20454;-74
2022/04/28 09:34:08;;;;;;;5.40;2.57;;;15.60;99.90;;;;;;5089745;28;20448;-74
2022/04/28 09:36:35;;;;;;;5.70;2.20;;;15.60;99.90;;;;;;5090076;28;20479;-76
2022/04/28 09:39:03;;;;;;;4.50;2.20;;;15.60;99.90;;;;;;5089900;28;20502;-72
2022/04/28 09:44:16;;;;;;;4.40;2.40;;;15.80;99.90;;;;;;5090163;28;20432;-76
2022/04/28 09:46:45;;;;;;;4.10;2.30;;;15.80;99.90;;;;;;5090999;28;20980;-76
2022/04/28 09:49:14;;;;;;;5.50;2.30;;;15.80;99.90;;;;;;5091883;28;20567;-77
2022/04/28 09:51:42;;;;;;;4.73;2.60;;;15.70;99.90;;;;;;5091761;28;20503;-72
2022/04/28 09:54:11;;;;;;;6.30;2.80;;;15.60;99.90;;;;;;5091334;28;20452;-75
2022/04/28 09:56:40;;;;;;;5.23;3.07;;;15.60;99.90;;;;;;5090778;28;20479;-76
2022/04/28 09:59:09;;;;;;;5.63;2.83;;;15.60;99.90;;;;;;5091088;28;20456;-76
2022/04/28 10:01:37;;;;;;;6.00;2.93;;;15.80;99.90;;;;;;5091174;28;20448;-76
2022/04/28 10:04:06;;;;;;;5.37;3.23;;;15.90;99.90;;;;;;5090965;28;20487;-74
2022/04/28 10:06:35;;;;;;;8.07;3.43;;;16.10;99.90;;;;;;5091211;28;20472;-73
2022/04/28 10:09:09;;;;;;;5.80;2.50;;;16.20;99.90;;;;;;5091040;28;20491;-72
2022/04/28 10:11:38;;;;;;;5.33;2.20;;;16.40;99.90;;;;;;5090641;28;20459;-76
2022/04/28 10:14:06;;;;;;;4.47;2.60;;;16.30;99.90;;;;;;5090157;28;20580;-76
2022/04/28 10:16:35;;;;;;;4.40;2.40;;;16.30;99.90;;;;;;5090353;28;20481;-73
2022/04/28 10:19:11;;;;;;;5.60;3.40;;;16.30;99.90;;;;;;5090834;28;20445;-75
2022/04/28 10:21:48;;;;;;;7.80;3.17;;;16.30;99.90;;;;;;5090859;28;20940;-76
2022/04/28 10:32:57;;;;;;;7.40;3.80;;;16.40;99.90;;;;;;5090226;28;20508;-74
2022/04/28 10:35:40;;;;;;;6.70;2.77;;;16.50;99.90;;;;;;5090479;28;20460;-74
2022/04/28 10:38:14;;;;;;;5.90;2.83;;;16.50;99.90;;;;;;5090300;28;20849;-73
2022/04/28 10:40:43;;;;;;;6.77;3.10;;;16.60;99.90;;;;;;5090012;28;20452;-73
2022/04/28 10:43:22;;;;;;;7.03;3.50;;;16.70;99.90;;;;;;5089885;28;20864;-73
2022/04/28 10:45:50;;;;;;;5.40;3.03;;;16.80;99.90;;;;;;5090054;28;20528;-74
2022/04/28 10:48:29;;;;;;;6.70;3.40;;;17.00;99.90;;;;;;5088881;28;20488;-74
2022/04/28 10:51:03;;;;;;;10.70;4.13;;;17.00;99.90;;;;;;5089515;28;20825;-72
2022/04/28 10:53:32;;;;;;;7.87;3.90;;;17.00;99.90;;;;;;5070015;28;20965;-73
2022/04/28 10:56:08;;;;;;;6.40;3.97;;;17.00;99.90;;;;;;5069732;28;20460;-75
2022/04/28 10:58:35;;;;;;;7.10;3.10;;;17.00;99.90;;;;;;5069932;28;20475;-74
2022/04/28 11:01:04;;;;;;;5.73;3.40;;;17.20;99.90;;;;;;5069820;28;20464;-72
2022/04/28 11:03:50;;;;;;;10.33;3.20;;;17.10;99.90;;;;;;5069783;28;20464;-75
2022/04/28 11:06:21;;;;;;;6.70;3.87;;;17.20;99.90;;;;;;5069693;28;20826;-74
2022/04/28 11:08:50;;;;;;;8.23;3.30;;;17.20;99.90;;;;;;5069670;28;20484;-73
2022/04/28 11:11:17;;;;;;;8.50;4.10;;;17.20;99.90;;;;;;5069740;28;20475;-73
2022/04/28 11:13:49;;;;;;;6.27;3.20;;;17.20;99.90;;;;;;5069803;28;20457;-75
2022/04/28 11:16:17;;;;;;;5.93;3.43;;;17.10;99.90;;;;;;5068918;28;20487;-72
2022/04/28 11:18:45;;;;;;;7.50;3.80;;;17.30;99.90;;;;;;5069350;28;20864;-72
2022/04/28 11:21:12;;;;;;;6.13;3.93;;;17.40;99.90;;;;;;5069677;28;20456;-74
2022/04/28 11:23:43;;;;;;;5.87;3.80;;;17.40;99.90;;;;;;5069499;28;20456;-72
2022/04/28 11:26:11;;;;;;;6.77;3.70;;;17.40;99.90;;;;;;5069247;28;20814;-74
2022/04/28 11:28:40;;;;;;;7.00;4.03;;;17.40;99.90;;;;;;5068516;28;20488;-73
2022/04/28 11:31:10;;;;;;;7.03;4.13;;;17.40;99.90;;;;;;5069180;28;20910;-75
2022/04/28 11:33:42;;;;;;;7.00;4.10;;;17.50;99.90;;;;;;5069392;28;20449;-74
2022/04/28 11:36:21;;;;;;;7.77;4.07;;;17.40;99.90;;;;;;5069247;28;20522;-74
2022/04/28 11:38:52;;;;;;;8.33;4.87;;;17.40;99.90;;;;;;5069509;28;20453;-73
2022/04/28 11:41:32;;;;;;;7.57;4.00;;;17.30;99.90;;;;;;5069206;28;20440;-73
2022/04/28 11:44:07;;;;;;;8.20;4.60;;;17.40;99.90;;;;;;5069267;28;20548;-72
2022/04/28 11:46:36;;;;;;;9.17;4.40;;;17.40;99.90;;;;;;5069177;28;20476;-76
2022/04/28 11:49:03;;;;;;;6.17;4.50;;;17.50;99.90;;;;;;5069311;28;20496;-74
2022/04/28 11:51:34;;;;;;;6.63;4.50;;;17.30;99.90;;;;;;5068948;28;20496;-74
2022/04/28 11:54:03;;;;;;;8.70;4.73;;;17.10;99.90;;;;;;5068897;28;20539;-74
2022/04/28 11:56:33;;;;;;;10.23;5.47;;;17.10;99.90;;;;;;5068998;28;20488;-75
2022/04/28 11:59:04;;;;;;;9.80;4.70;;;17.30;99.90;;;;;;5069434;28;20502;-73
2022/04/28 12:01:33;;;;;;;7.87;5.20;;;17.40;99.90;;;;;;5069206;28;20453;-72
2022/04/28 12:04:01;;;;;;;7.27;5.57;;;17.40;99.90;;;;;;5069065;28;20453;-72
2022/04/28 12:06:28;;;;;;;8.47;5.73;;;17.30;99.90;;;;;;5069159;28;20793;-75
2022/04/28 12:08:57;;;;;;;8.97;5.67;;;17.40;99.90;;;;;;5069019;28;20516;-75
2022/04/28 12:14:25;;;;;;;9.87;6.53;;;17.40;99.90;;;;;;5069261;28;20948;-76
2022/04/28 12:19:50;;;;;;;6.70;5.07;;;17.60;99.90;;;;;;5069070;28;20530;-74
2022/04/28 12:22:29;;;;;;;7.80;5.83;;;17.20;99.90;;;;;;5068728;28;20549;-74
2022/04/28 12:25:02;;;;;;;11.13;6.00;;;17.10;99.90;;;;;;5068814;28;20487;-73
2022/04/28 12:27:44;;;;;;;7.93;5.97;;;17.20;99.90;;;;;;5068765;28;20473;-74
2022/04/28 12:30:13;;;;;;;8.13;5.30;;;17.30;99.90;;;;;;5068827;28;20813;-76
2022/04/28 12:32:46;;;;;;;10.17;5.83;;;17.30;99.90;;;;;;5069011;28;20484;-77
2022/04/28 12:35:29;;;;;;;7.10;4.90;;;17.30;99.90;;;;;;5068612;28;20796;-74
2022/04/28 12:37:59;;;;;;;8.80;5.50;;;17.40;99.90;;;;;;5068876;28;20487;-74
2022/04/28 12:40:27;;;;;;;8.00;5.13;;;17.60;99.90;;;;;;5070124;28;20483;-75
2022/04/28 12:42:57;;;;;;;8.10;5.47;;;17.70;99.90;;;;;;5072386;28;20452;-74
2022/04/28 12:45:45;;;;;;;10.83;5.80;;;17.70;99.90;;;;;;5071969;28;20943;-74
2022/04/28 12:48:29;;;;;;;8.27;5.37;;;17.80;99.90;;;;;;5072129;28;20492;-74
2022/04/28 12:51:16;;;;;;;7.80;5.60;;;17.50;99.90;;;;;;5071759;28;20996;-74
2022/04/28 12:53:46;;;;;;;7.77;4.97;;;17.40;99.90;;;;;;5072512;28;20514;-73
2022/04/28 12:56:18;;;;;;;7.93;6.03;;;17.50;99.90;;;;;;5072166;28;20476;-74
2022/04/28 12:58:48;;;;;;;8.37;6.03;;;17.30;99.90;;;;;;5072265;28;20446;-73
2022/04/28 13:01:18;;;;;;;6.73;5.53;;;17.30;99.90;;;;;;5072104;28;20453;-71
2022/04/28 13:03:57;;;;;;;6.90;4.90;;;17.30;99.90;;;;;;5072055;28;20461;-72
2022/04/28 13:06:25;;;;;;;8.00;5.70;;;17.40;99.90;;;;;;5071563;28;20655;-75
2022/04/28 13:08:53;;;;;;;8.40;5.83;;;17.30;99.90;;;;;;5071972;28;20503;-78
2022/04/28 13:11:24;;;;;;;8.77;6.20;;;17.30;99.90;;;;;;5071726;28;20449;-77
2022/04/28 13:13:53;;;;;;;8.83;5.23;;;17.40;99.90;;;;;;5072002;28;20453;-75
2022/04/28 13:16:20;;;;;;;8.10;5.10;;;17.40;99.90;;;;;;5071696;28;20977;-74
2022/04/28 13:18:47;;;;;;;8.87;5.57;;;17.50;99.90;;;;;;5071771;28;20956;-75
2022/04/28 13:21:15;;;;;;;14.87;6.23;;;17.50;99.90;;;;;;5071262;28;20514;-75
2022/04/28 13:23:43;;;;;;;7.90;5.70;;;17.70;99.90;;;;;;5071726;28;20889;-73
2022/04/28 13:26:12;;;;;;;9.53;5.90;;;17.80;99.90;;;;;;5071439;28;20511;-72
2022/04/28 13:28:39;;;;;;;9.80;5.30;;;17.80;99.90;;;;;;5071434;28;21052;-72